sensor_id;sensor_type;location;lat;lon;timestamp;P1;durP1;ratioP1;P2;durP2;ratioP2
64282;SDS011;50497;50.720;-2.084;2023-04-23T00:00:27;6.75;;;1.80;;
64282;SDS011;50497;50.720;-2.084;2023-04-23T00:02:54;8.70;;;1.90;;
64282;SDS011;50497;50.720;-2.084;2023-04-23T00:05:23;5.35;;;1.50;;
64282;SDS011;50497;50.720;-2.084;2023-04-23T00:07:55;8.32;;;2.03;;
64282;SDS011;50497;50.720;-2.084;2023-04-23T00:10:24;6.05;;;1.70;;
64282;SDS011;50497;50.720;-2.084;2023-04-23T00:12:51;5.20;;;1.70;;
64282;SDS011;50497;50.720;-2.084;2023-04-23T00:15:16;5.75;;;1.70;;
64282;SDS011;50497;50.720;-2.084;2023-04-23T00:17:51;5.43;;;1.52;;
64282;SDS011;50497;50.720;-2.084;2023-04-23T00:20:17;4.53;;;1.40;;
64282;SDS011;50497;50.720;-2.084;2023-04-23T00:22:42;5.50;;;1.77;;
64282;SDS011;50497;50.720;-2.084;2023-04-23T00:25:08;7.80;;;1.60;;
64282;SDS011;50497;50.720;-2.084;2023-04-23T00:30:01;4.75;;;1.63;;
64282;SDS011;50497;50.720;-2.084;2023-04-23T00:32:27;5.45;;;1.70;;
64282;SDS011;50497;50.720;-2.084;2023-04-23T00:34:53;8.70;;;2.03;;
64282;SDS011;50497;50.720;-2.084;2023-04-23T00:37:22;4.60;;;1.83;;
64282;SDS011;50497;50.720;-2.084;2023-04-23T00:39:51;6.70;;;1.73;;
64282;SDS011;50497;50.720;-2.084;2023-04-23T00:42:20;9.68;;;2.30;;
64282;SDS011;50497;50.720;-2.084;2023-04-23T00:44:48;6.88;;;1.83;;
64282;SDS011;50497;50.720;-2.084;2023-04-23T00:47:15;7.82;;;2.00;;
64282;SDS011;50497;50.720;-2.084;2023-04-23T00:49:42;6.25;;;1.88;;
64282;SDS011;50497;50.720;-2.084;2023-04-23T00:52:09;5.53;;;1.85;;
64282;SDS011;50497;50.720;-2.084;2023-04-23T00:54:34;9.55;;;2.40;;
64282;SDS011;50497;50.720;-2.084;2023-04-23T00:57:03;8.38;;;2.28;;
64282;SDS011;50497;50.720;-2.084;2023-04-23T00:59:32;7.00;;;2.10;;
64282;SDS011;50497;50.720;-2.084;2023-04-23T01:01:58;8.18;;;2.55;;
64282;SDS011;50497;50.720;-2.084;2023-04-23T01:04:24;8.82;;;2.70;;
64282;SDS011;50497;50.720;-2.084;2023-04-23T01:06:53;9.15;;;2.78;;
64282;SDS011;50497;50.720;-2.084;2023-04-23T01:09:27;8.35;;;2.58;;
64282;SDS011;50497;50.720;-2.084;2023-04-23T01:11:55;7.32;;;2.72;;
64282;SDS011;50497;50.720;-2.084;2023-04-23T01:14:26;10.00;;;2.65;;
64282;SDS011;50497;50.720;-2.084;2023-04-23T01:16:52;10.50;;;2.72;;
64282;SDS011;50497;50.720;-2.084;2023-04-23T01:19:18;7.38;;;2.97;;
64282;SDS011;50497;50.720;-2.084;2023-04-23T01:21:46;8.77;;;3.08;;
64282;SDS011;50497;50.720;-2.084;2023-04-23T01:24:15;9.88;;;3.00;;
64282;SDS011;50497;50.720;-2.084;2023-04-23T01:26:40;7.78;;;3.38;;
64282;SDS011;50497;50.720;-2.084;2023-04-23T01:29:06;10.02;;;3.53;;
64282;SDS011;50497;50.720;-2.084;2023-04-23T01:31:32;9.18;;;3.45;;
64282;SDS011;50497;50.720;-2.084;2023-04-23T01:33:58;8.55;;;3.17;;
64282;SDS011;50497;50.720;-2.084;2023-04-23T01:36:25;11.93;;;3.47;;
64282;SDS011;50497;50.720;-2.084;2023-04-23T01:38:51;8.57;;;3.30;;
64282;SDS011;50497;50.720;-2.084;2023-04-23T01:41:17;10.50;;;3.50;;
64282;SDS011;50497;50.720;-2.084;2023-04-23T01:43:43;9.93;;;3.40;;
64282;SDS011;50497;50.720;-2.084;2023-04-23T01:46:13;8.98;;;3.40;;
64282;SDS011;50497;50.720;-2.084;2023-04-23T01:48:39;12.27;;;3.75;;
64282;SDS011;50497;50.720;-2.084;2023-04-23T01:51:04;11.32;;;4.03;;
64282;SDS011;50497;50.720;-2.084;2023-04-23T01:53:33;12.23;;;3.63;;
64282;SDS011;50497;50.720;-2.084;2023-04-23T01:56:00;9.73;;;3.53;;
64282;SDS011;50497;50.720;-2.084;2023-04-23T01:58:26;13.98;;;4.00;;
64282;SDS011;50497;50.720;-2.084;2023-04-23T02:00:52;9.82;;;3.65;;
64282;SDS011;50497;50.720;-2.084;2023-04-23T02:03:17;10.88;;;3.40;;
64282;SDS011;50497;50.720;-2.084;2023-04-23T02:05:43;9.25;;;3.42;;
64282;SDS011;50497;50.720;-2.084;2023-04-23T02:08:09;11.90;;;3.85;;
64282;SDS011;50497;50.720;-2.084;2023-04-23T02:10:35;11.20;;;3.75;;
64282;SDS011;50497;50.720;-2.084;2023-04-23T02:13:04;10.82;;;3.50;;
64282;SDS011;50497;50.720;-2.084;2023-04-23T02:15:31;9.15;;;2.97;;
64282;SDS011;50497;50.720;-2.084;2023-04-23T02:17:56;9.15;;;3.42;;
64282;SDS011;50497;50.720;-2.084;2023-04-23T02:20:22;11.95;;;3.00;;
64282;SDS011;50497;50.720;-2.084;2023-04-23T02:22:51;10.57;;;3.40;;
64282;SDS011;50497;50.720;-2.084;2023-04-23T02:25:17;11.85;;;4.00;;
64282;SDS011;50497;50.720;-2.084;2023-04-23T02:27:49;10.73;;;3.80;;
64282;SDS011;50497;50.720;-2.084;2023-04-23T02:30:19;9.27;;;3.90;;
64282;SDS011;50497;50.720;-2.084;2023-04-23T02:32:45;7.60;;;3.33;;
64282;SDS011;50497;50.720;-2.084;2023-04-23T02:35:10;12.00;;;4.15;;
64282;SDS011;50497;50.720;-2.084;2023-04-23T02:37:39;8.85;;;3.20;;
64282;SDS011;50497;50.720;-2.084;2023-04-23T02:40:07;9.85;;;4.03;;
64282;SDS011;50497;50.720;-2.084;2023-04-23T02:42:33;9.80;;;3.75;;
64282;SDS011;50497;50.720;-2.084;2023-04-23T02:45:00;9.30;;;3.53;;
64282;SDS011;50497;50.720;-2.084;2023-04-23T02:47:26;9.45;;;3.80;;
64282;SDS011;50497;50.720;-2.084;2023-04-23T02:49:51;10.18;;;3.78;;
64282;SDS011;50497;50.720;-2.084;2023-04-23T02:52:23;9.27;;;3.90;;
64282;SDS011;50497;50.720;-2.084;2023-04-23T02:54:48;7.78;;;3.33;;
64282;SDS011;50497;50.720;-2.084;2023-04-23T02:57:23;9.52;;;3.80;;
64282;SDS011;50497;50.720;-2.084;2023-04-23T02:59:52;8.35;;;3.97;;
64282;SDS011;50497;50.720;-2.084;2023-04-23T03:02:19;8.18;;;3.42;;
64282;SDS011;50497;50.720;-2.084;2023-04-23T03:04:47;9.30;;;3.45;;
64282;SDS011;50497;50.720;-2.084;2023-04-23T03:07:13;8.80;;;3.13;;
64282;SDS011;50497;50.720;-2.084;2023-04-23T03:09:43;9.68;;;3.53;;
64282;SDS011;50497;50.720;-2.084;2023-04-23T03:12:09;6.90;;;2.85;;
64282;SDS011;50497;50.720;-2.084;2023-04-23T03:14:36;7.60;;;3.25;;
64282;SDS011;50497;50.720;-2.084;2023-04-23T03:17:06;8.77;;;3.50;;
64282;SDS011;50497;50.720;-2.084;2023-04-23T03:19:33;9.52;;;3.20;;
64282;SDS011;50497;50.720;-2.084;2023-04-23T03:21:59;7.60;;;3.35;;
64282;SDS011;50497;50.720;-2.084;2023-04-23T03:24:27;7.95;;;3.20;;
64282;SDS011;50497;50.720;-2.084;2023-04-23T03:26:56;7.30;;;3.30;;
64282;SDS011;50497;50.720;-2.084;2023-04-23T03:29:25;7.53;;;3.25;;
64282;SDS011;50497;50.720;-2.084;2023-04-23T03:31:51;8.05;;;3.17;;
64282;SDS011;50497;50.720;-2.084;2023-04-23T03:34:22;6.28;;;2.92;;
64282;SDS011;50497;50.720;-2.084;2023-04-23T03:36:51;8.52;;;3.58;;
64282;SDS011;50497;50.720;-2.084;2023-04-23T03:39:16;8.25;;;3.63;;
64282;SDS011;50497;50.720;-2.084;2023-04-23T03:41:42;8.93;;;3.28;;
64282;SDS011;50497;50.720;-2.084;2023-04-23T03:44:07;8.32;;;3.60;;
64282;SDS011;50497;50.720;-2.084;2023-04-23T03:46:35;9.95;;;3.97;;
64282;SDS011;50497;50.720;-2.084;2023-04-23T03:49:04;8.85;;;3.70;;
64282;SDS011;50497;50.720;-2.084;2023-04-23T03:51:29;8.45;;;3.60;;
64282;SDS011;50497;50.720;-2.084;2023-04-23T03:53:55;8.05;;;3.67;;
64282;SDS011;50497;50.720;-2.084;2023-04-23T03:56:25;9.88;;;3.80;;
64282;SDS011;50497;50.720;-2.084;2023-04-23T03:58:50;8.55;;;3.58;;
64282;SDS011;50497;50.720;-2.084;2023-04-23T04:01:16;8.80;;;3.67;;
64282;SDS011;50497;50.720;-2.084;2023-04-23T04:03:45;10.55;;;4.13;;
64282;SDS011;50497;50.720;-2.084;2023-04-23T04:06:16;8.75;;;3.70;;
64282;SDS011;50497;50.720;-2.084;2023-04-23T04:08:44;8.93;;;4.03;;
64282;SDS011;50497;50.720;-2.084;2023-04-23T04:11:10;10.68;;;4.05;;
64282;SDS011;50497;50.720;-2.084;2023-04-23T04:13:35;9.93;;;4.10;;
64282;SDS011;50497;50.720;-2.084;2023-04-23T04:16:01;10.35;;;4.00;;
64282;SDS011;50497;50.720;-2.084;2023-04-23T04:18:30;10.40;;;4.03;;
64282;SDS011;50497;50.720;-2.084;2023-04-23T04:20:59;8.38;;;3.50;;
64282;SDS011;50497;50.720;-2.084;2023-04-23T04:23:28;9.55;;;4.13;;
64282;SDS011;50497;50.720;-2.084;2023-04-23T04:25:54;8.10;;;3.67;;
64282;SDS011;50497;50.720;-2.084;2023-04-23T04:28:21;8.57;;;4.15;;
64282;SDS011;50497;50.720;-2.084;2023-04-23T04:30:49;9.45;;;3.75;;
64282;SDS011;50497;50.720;-2.084;2023-04-23T04:33:17;8.35;;;3.65;;
64282;SDS011;50497;50.720;-2.084;2023-04-23T04:35:44;10.30;;;3.58;;
64282;SDS011;50497;50.720;-2.084;2023-04-23T04:38:10;9.05;;;3.75;;
64282;SDS011;50497;50.720;-2.084;2023-04-23T04:40:36;9.90;;;3.75;;
64282;SDS011;50497;50.720;-2.084;2023-04-23T04:43:02;8.82;;;3.45;;
64282;SDS011;50497;50.720;-2.084;2023-04-23T04:45:29;8.52;;;3.53;;
64282;SDS011;50497;50.720;-2.084;2023-04-23T04:47:56;10.68;;;3.30;;
64282;SDS011;50497;50.720;-2.084;2023-04-23T04:50:21;8.63;;;3.40;;
64282;SDS011;50497;50.720;-2.084;2023-04-23T04:52:50;11.65;;;3.97;;
64282;SDS011;50497;50.720;-2.084;2023-04-23T04:55:20;9.68;;;3.95;;
64282;SDS011;50497;50.720;-2.084;2023-04-23T04:57:54;10.23;;;4.20;;
64282;SDS011;50497;50.720;-2.084;2023-04-23T05:00:28;9.63;;;3.92;;
64282;SDS011;50497;50.720;-2.084;2023-04-23T05:02:58;8.85;;;4.05;;
64282;SDS011;50497;50.720;-2.084;2023-04-23T05:05:31;10.77;;;3.90;;
64282;SDS011;50497;50.720;-2.084;2023-04-23T05:08:01;10.90;;;4.28;;
64282;SDS011;50497;50.720;-2.084;2023-04-23T05:10:27;10.02;;;4.15;;
64282;SDS011;50497;50.720;-2.084;2023-04-23T05:13:00;12.38;;;4.45;;
64282;SDS011;50497;50.720;-2.084;2023-04-23T05:15:26;11.23;;;4.30;;
64282;SDS011;50497;50.720;-2.084;2023-04-23T05:17:52;10.35;;;4.00;;
64282;SDS011;50497;50.720;-2.084;2023-04-23T05:20:25;8.93;;;4.00;;
64282;SDS011;50497;50.720;-2.084;2023-04-23T05:22:52;8.55;;;3.80;;
64282;SDS011;50497;50.720;-2.084;2023-04-23T05:25:20;8.80;;;3.75;;
64282;SDS011;50497;50.720;-2.084;2023-04-23T05:27:46;11.95;;;4.50;;
64282;SDS011;50497;50.720;-2.084;2023-04-23T05:30:11;9.63;;;3.90;;
64282;SDS011;50497;50.720;-2.084;2023-04-23T05:32:37;8.55;;;4.13;;
64282;SDS011;50497;50.720;-2.084;2023-04-23T05:35:03;10.88;;;4.18;;
64282;SDS011;50497;50.720;-2.084;2023-04-23T05:37:33;11.30;;;4.50;;
64282;SDS011;50497;50.720;-2.084;2023-04-23T05:39:58;11.52;;;4.45;;
64282;SDS011;50497;50.720;-2.084;2023-04-23T05:42:24;11.18;;;4.63;;
64282;SDS011;50497;50.720;-2.084;2023-04-23T05:44:50;10.68;;;4.78;;
64282;SDS011;50497;50.720;-2.084;2023-04-23T05:47:15;10.15;;;5.18;;
64282;SDS011;50497;50.720;-2.084;2023-04-23T05:49:41;12.38;;;4.70;;
64282;SDS011;50497;50.720;-2.084;2023-04-23T05:52:06;10.18;;;4.28;;
64282;SDS011;50497;50.720;-2.084;2023-04-23T05:54:36;11.82;;;4.72;;
64282;SDS011;50497;50.720;-2.084;2023-04-23T05:57:01;12.35;;;4.60;;
64282;SDS011;50497;50.720;-2.084;2023-04-23T05:59:28;11.52;;;4.97;;
64282;SDS011;50497;50.720;-2.084;2023-04-23T06:01:53;9.73;;;4.28;;
64282;SDS011;50497;50.720;-2.084;2023-04-23T06:04:19;11.75;;;4.60;;
64282;SDS011;50497;50.720;-2.084;2023-04-23T06:06:52;9.35;;;4.50;;
64282;SDS011;50497;50.720;-2.084;2023-04-23T06:09:17;9.98;;;4.65;;
64282;SDS011;50497;50.720;-2.084;2023-04-23T06:11:51;10.55;;;4.22;;
64282;SDS011;50497;50.720;-2.084;2023-04-23T06:16:49;11.40;;;4.50;;
64282;SDS011;50497;50.720;-2.084;2023-04-23T06:19:19;9.15;;;4.55;;
64282;SDS011;50497;50.720;-2.084;2023-04-23T06:21:51;11.27;;;4.60;;
64282;SDS011;50497;50.720;-2.084;2023-04-23T06:24:20;12.15;;;4.90;;
64282;SDS011;50497;50.720;-2.084;2023-04-23T06:26:53;12.75;;;4.82;;
64282;SDS011;50497;50.720;-2.084;2023-04-23T06:29:25;9.95;;;4.40;;
64282;SDS011;50497;50.720;-2.084;2023-04-23T06:31:53;10.80;;;4.80;;
64282;SDS011;50497;50.720;-2.084;2023-04-23T06:34:25;11.18;;;5.10;;
64282;SDS011;50497;50.720;-2.084;2023-04-23T06:36:50;10.45;;;4.65;;
64282;SDS011;50497;50.720;-2.084;2023-04-23T06:39:19;10.77;;;5.00;;
64282;SDS011;50497;50.720;-2.084;2023-04-23T06:41:53;9.68;;;4.50;;
64282;SDS011;50497;50.720;-2.084;2023-04-23T06:44:22;12.40;;;5.07;;
64282;SDS011;50497;50.720;-2.084;2023-04-23T06:46:48;11.90;;;5.40;;
64282;SDS011;50497;50.720;-2.084;2023-04-23T06:49:13;10.95;;;5.07;;
64282;SDS011;50497;50.720;-2.084;2023-04-23T06:51:39;11.77;;;5.38;;
64282;SDS011;50497;50.720;-2.084;2023-04-23T06:54:04;12.70;;;5.38;;
64282;SDS011;50497;50.720;-2.084;2023-04-23T06:56:30;10.60;;;5.03;;
64282;SDS011;50497;50.720;-2.084;2023-04-23T06:58:59;12.80;;;5.53;;
64282;SDS011;50497;50.720;-2.084;2023-04-23T07:01:25;12.55;;;5.13;;
64282;SDS011;50497;50.720;-2.084;2023-04-23T07:03:54;10.93;;;4.93;;
64282;SDS011;50497;50.720;-2.084;2023-04-23T07:06:20;10.82;;;5.35;;
64282;SDS011;50497;50.720;-2.084;2023-04-23T07:08:45;11.43;;;5.13;;
64282;SDS011;50497;50.720;-2.084;2023-04-23T07:11:11;13.38;;;5.40;;
64282;SDS011;50497;50.720;-2.084;2023-04-23T07:13:39;10.38;;;4.70;;
64282;SDS011;50497;50.720;-2.084;2023-04-23T07:16:06;11.05;;;5.28;;
64282;SDS011;50497;50.720;-2.084;2023-04-23T07:18:40;12.32;;;5.68;;
64282;SDS011;50497;50.720;-2.084;2023-04-23T07:21:12;12.82;;;5.65;;
64282;SDS011;50497;50.720;-2.084;2023-04-23T07:23:42;12.85;;;5.25;;
64282;SDS011;50497;50.720;-2.084;2023-04-23T07:26:10;11.85;;;5.38;;
64282;SDS011;50497;50.720;-2.084;2023-04-23T07:28:40;12.63;;;5.50;;
64282;SDS011;50497;50.720;-2.084;2023-04-23T07:31:11;12.05;;;5.43;;
64282;SDS011;50497;50.720;-2.084;2023-04-23T07:33:37;11.45;;;5.65;;
64282;SDS011;50497;50.720;-2.084;2023-04-23T07:36:06;11.63;;;5.13;;
64282;SDS011;50497;50.720;-2.084;2023-04-23T07:38:32;11.95;;;5.20;;
64282;SDS011;50497;50.720;-2.084;2023-04-23T07:40:57;13.05;;;5.40;;
64282;SDS011;50497;50.720;-2.084;2023-04-23T07:43:26;12.40;;;5.75;;
64282;SDS011;50497;50.720;-2.084;2023-04-23T07:45:52;11.65;;;5.63;;
64282;SDS011;50497;50.720;-2.084;2023-04-23T07:48:21;12.27;;;5.32;;
64282;SDS011;50497;50.720;-2.084;2023-04-23T07:50:49;10.63;;;5.57;;
64282;SDS011;50497;50.720;-2.084;2023-04-23T07:53:18;12.90;;;5.88;;
64282;SDS011;50497;50.720;-2.084;2023-04-23T07:55:54;11.77;;;5.25;;
64282;SDS011;50497;50.720;-2.084;2023-04-23T07:58:30;12.38;;;6.55;;
64282;SDS011;50497;50.720;-2.084;2023-04-23T08:00:57;11.98;;;5.60;;
64282;SDS011;50497;50.720;-2.084;2023-04-23T08:05:49;11.75;;;6.15;;
64282;SDS011;50497;50.720;-2.084;2023-04-23T08:08:21;12.05;;;5.85;;
64282;SDS011;50497;50.720;-2.084;2023-04-23T08:10:47;11.68;;;6.00;;
64282;SDS011;50497;50.720;-2.084;2023-04-23T08:13:13;12.88;;;6.40;;
64282;SDS011;50497;50.720;-2.084;2023-04-23T08:15:42;13.63;;;6.20;;
64282;SDS011;50497;50.720;-2.084;2023-04-23T08:18:12;14.52;;;6.38;;
64282;SDS011;50497;50.720;-2.084;2023-04-23T08:20:40;15.05;;;6.50;;
64282;SDS011;50497;50.720;-2.084;2023-04-23T08:23:09;12.88;;;6.63;;
64282;SDS011;50497;50.720;-2.084;2023-04-23T08:25:35;14.38;;;6.75;;
64282;SDS011;50497;50.720;-2.084;2023-04-23T08:28:00;12.68;;;6.40;;
64282;SDS011;50497;50.720;-2.084;2023-04-23T08:30:30;14.32;;;7.03;;
64282;SDS011;50497;50.720;-2.084;2023-04-23T08:32:55;14.18;;;7.03;;
64282;SDS011;50497;50.720;-2.084;2023-04-23T08:35:21;14.05;;;7.03;;
64282;SDS011;50497;50.720;-2.084;2023-04-23T08:37:47;15.13;;;6.97;;
64282;SDS011;50497;50.720;-2.084;2023-04-23T08:40:13;16.35;;;7.30;;
64282;SDS011;50497;50.720;-2.084;2023-04-23T08:42:44;15.10;;;7.80;;
64282;SDS011;50497;50.720;-2.084;2023-04-23T08:45:17;14.25;;;7.50;;
64282;SDS011;50497;50.720;-2.084;2023-04-23T08:47:46;14.98;;;7.65;;
64282;SDS011;50497;50.720;-2.084;2023-04-23T08:50:18;14.65;;;7.28;;
64282;SDS011;50497;50.720;-2.084;2023-04-23T08:52:54;14.52;;;7.53;;
64282;SDS011;50497;50.720;-2.084;2023-04-23T08:55:21;15.70;;;8.40;;
64282;SDS011;50497;50.720;-2.084;2023-04-23T08:57:48;14.48;;;7.43;;
64282;SDS011;50497;50.720;-2.084;2023-04-23T09:00:17;14.90;;;7.70;;
64282;SDS011;50497;50.720;-2.084;2023-04-23T09:02:47;15.93;;;7.80;;
64282;SDS011;50497;50.720;-2.084;2023-04-23T09:05:13;14.20;;;7.22;;
64282;SDS011;50497;50.720;-2.084;2023-04-23T09:07:40;14.02;;;7.53;;
64282;SDS011;50497;50.720;-2.084;2023-04-23T09:10:06;13.30;;;7.45;;
64282;SDS011;50497;50.720;-2.084;2023-04-23T09:12:38;14.88;;;7.70;;
64282;SDS011;50497;50.720;-2.084;2023-04-23T09:15:05;14.23;;;7.70;;
64282;SDS011;50497;50.720;-2.084;2023-04-23T09:17:37;16.27;;;7.60;;
64282;SDS011;50497;50.720;-2.084;2023-04-23T09:20:12;15.38;;;8.27;;
64282;SDS011;50497;50.720;-2.084;2023-04-23T09:22:45;16.67;;;8.85;;
64282;SDS011;50497;50.720;-2.084;2023-04-23T09:25:11;16.42;;;8.13;;
64282;SDS011;50497;50.720;-2.084;2023-04-23T09:27:44;15.88;;;8.30;;
64282;SDS011;50497;50.720;-2.084;2023-04-23T09:30:15;16.02;;;8.85;;
64282;SDS011;50497;50.720;-2.084;2023-04-23T09:32:45;17.33;;;8.85;;
64282;SDS011;50497;50.720;-2.084;2023-04-23T09:35:19;16.40;;;7.95;;
64282;SDS011;50497;50.720;-2.084;2023-04-23T09:37:55;16.85;;;8.80;;
64282;SDS011;50497;50.720;-2.084;2023-04-23T09:40:29;17.00;;;9.43;;
64282;SDS011;50497;50.720;-2.084;2023-04-23T09:43:09;18.35;;;9.13;;
64282;SDS011;50497;50.720;-2.084;2023-04-23T09:45:51;16.52;;;8.82;;
64282;SDS011;50497;50.720;-2.084;2023-04-23T09:48:17;16.10;;;8.60;;
64282;SDS011;50497;50.720;-2.084;2023-04-23T09:50:55;16.23;;;8.63;;
64282;SDS011;50497;50.720;-2.084;2023-04-23T09:53:20;15.90;;;9.25;;
64282;SDS011;50497;50.720;-2.084;2023-04-23T09:55:46;13.48;;;7.50;;
64282;SDS011;50497;50.720;-2.084;2023-04-23T09:58:13;14.52;;;7.70;;
64282;SDS011;50497;50.720;-2.084;2023-04-23T10:00:43;12.90;;;7.20;;
64282;SDS011;50497;50.720;-2.084;2023-04-23T10:03:12;12.57;;;7.10;;
64282;SDS011;50497;50.720;-2.084;2023-04-23T10:05:38;12.98;;;7.25;;
64282;SDS011;50497;50.720;-2.084;2023-04-23T10:08:10;12.35;;;6.97;;
64282;SDS011;50497;50.720;-2.084;2023-04-23T10:10:41;12.98;;;7.82;;
64282;SDS011;50497;50.720;-2.084;2023-04-23T10:13:17;11.27;;;6.72;;
64282;SDS011;50497;50.720;-2.084;2023-04-23T10:15:59;12.43;;;7.20;;
64282;SDS011;50497;50.720;-2.084;2023-04-23T10:18:30;11.43;;;6.40;;
64282;SDS011;50497;50.720;-2.084;2023-04-23T10:21:05;9.82;;;5.72;;
64282;SDS011;50497;50.720;-2.084;2023-04-23T10:23:36;10.50;;;6.07;;
64282;SDS011;50497;50.720;-2.084;2023-04-23T10:26:12;7.78;;;3.90;;
64282;SDS011;50497;50.720;-2.084;2023-04-23T10:28:46;10.48;;;5.40;;
64282;SDS011;50497;50.720;-2.084;2023-04-23T10:31:15;8.75;;;4.93;;
64282;SDS011;50497;50.720;-2.084;2023-04-23T10:33:47;9.30;;;4.88;;
64282;SDS011;50497;50.720;-2.084;2023-04-23T10:36:14;10.25;;;5.30;;
64282;SDS011;50497;50.720;-2.084;2023-04-23T10:38:44;8.60;;;5.13;;
64282;SDS011;50497;50.720;-2.084;2023-04-23T10:41:17;8.25;;;4.55;;
64282;SDS011;50497;50.720;-2.084;2023-04-23T10:43:52;6.93;;;4.00;;
64282;SDS011;50497;50.720;-2.084;2023-04-23T10:46:29;6.15;;;3.33;;
64282;SDS011;50497;50.720;-2.084;2023-04-23T10:52:02;6.95;;;3.67;;
64282;SDS011;50497;50.720;-2.084;2023-04-23T10:54:36;8.48;;;4.70;;
64282;SDS011;50497;50.720;-2.084;2023-04-23T10:57:09;7.28;;;4.10;;
64282;SDS011;50497;50.720;-2.084;2023-04-23T10:59:56;8.05;;;4.47;;
64282;SDS011;50497;50.720;-2.084;2023-04-23T11:02:26;7.03;;;3.63;;
64282;SDS011;50497;50.720;-2.084;2023-04-23T11:05:07;6.90;;;4.20;;
64282;SDS011;50497;50.720;-2.084;2023-04-23T11:07:34;8.40;;;4.95;;
64282;SDS011;50497;50.720;-2.084;2023-04-23T11:10:05;8.82;;;4.68;;
64282;SDS011;50497;50.720;-2.084;2023-04-23T11:12:38;8.95;;;5.10;;
64282;SDS011;50497;50.720;-2.084;2023-04-23T11:15:13;9.00;;;5.05;;
64282;SDS011;50497;50.720;-2.084;2023-04-23T11:25:22;9.18;;;5.80;;
64282;SDS011;50497;50.720;-2.084;2023-04-23T11:27:49;9.52;;;5.95;;
64282;SDS011;50497;50.720;-2.084;2023-04-23T11:30:17;9.05;;;5.95;;
64282;SDS011;50497;50.720;-2.084;2023-04-23T11:32:48;8.80;;;5.28;;
64282;SDS011;50497;50.720;-2.084;2023-04-23T11:35:16;9.65;;;5.85;;
64282;SDS011;50497;50.720;-2.084;2023-04-23T11:37:43;10.63;;;6.40;;
64282;SDS011;50497;50.720;-2.084;2023-04-23T11:40:10;10.00;;;5.97;;
64282;SDS011;50497;50.720;-2.084;2023-04-23T11:42:47;8.98;;;5.53;;
64282;SDS011;50497;50.720;-2.084;2023-04-23T11:45:17;9.18;;;5.03;;
64282;SDS011;50497;50.720;-2.084;2023-04-23T11:47:45;9.23;;;4.82;;
64282;SDS011;50497;50.720;-2.084;2023-04-23T11:50:16;8.75;;;4.60;;
64282;SDS011;50497;50.720;-2.084;2023-04-23T11:52:43;8.25;;;4.60;;
64282;SDS011;50497;50.720;-2.084;2023-04-23T11:55:09;7.70;;;4.28;;
64282;SDS011;50497;50.720;-2.084;2023-04-23T11:57:40;7.70;;;4.10;;
64282;SDS011;50497;50.720;-2.084;2023-04-23T12:00:13;8.23;;;4.28;;
64282;SDS011;50497;50.720;-2.084;2023-04-23T12:05:26;6.63;;;3.55;;
64282;SDS011;50497;50.720;-2.084;2023-04-23T12:08:08;6.72;;;4.05;;
64282;SDS011;50497;50.720;-2.084;2023-04-23T12:10:40;9.77;;;4.43;;
64282;SDS011;50497;50.720;-2.084;2023-04-23T12:13:15;8.88;;;4.63;;
64282;SDS011;50497;50.720;-2.084;2023-04-23T12:15:49;7.57;;;4.07;;
64282;SDS011;50497;50.720;-2.084;2023-04-23T12:18:17;6.97;;;3.78;;
64282;SDS011;50497;50.720;-2.084;2023-04-23T12:20:52;8.20;;;4.85;;
64282;SDS011;50497;50.720;-2.084;2023-04-23T12:23:25;9.57;;;5.00;;
64282;SDS011;50497;50.720;-2.084;2023-04-23T12:25:57;10.20;;;5.07;;
64282;SDS011;50497;50.720;-2.084;2023-04-23T12:28:24;8.00;;;4.40;;
64282;SDS011;50497;50.720;-2.084;2023-04-23T12:30:50;8.85;;;5.32;;
64282;SDS011;50497;50.720;-2.084;2023-04-23T12:33:16;9.75;;;5.07;;
64282;SDS011;50497;50.720;-2.084;2023-04-23T12:35:43;9.40;;;5.22;;
64282;SDS011;50497;50.720;-2.084;2023-04-23T12:38:20;8.70;;;5.07;;
64282;SDS011;50497;50.720;-2.084;2023-04-23T12:40:55;10.02;;;4.88;;
64282;SDS011;50497;50.720;-2.084;2023-04-23T12:43:21;10.52;;;5.13;;
64282;SDS011;50497;50.720;-2.084;2023-04-23T12:45:48;9.27;;;4.93;;
64282;SDS011;50497;50.720;-2.084;2023-04-23T12:48:14;10.50;;;5.88;;
64282;SDS011;50497;50.720;-2.084;2023-04-23T12:50:40;11.95;;;6.55;;
64282;SDS011;50497;50.720;-2.084;2023-04-23T12:53:05;10.85;;;6.25;;
64282;SDS011;50497;50.720;-2.084;2023-04-23T12:55:31;13.13;;;6.50;;
64282;SDS011;50497;50.720;-2.084;2023-04-23T12:57:58;11.68;;;6.50;;
64282;SDS011;50497;50.720;-2.084;2023-04-23T13:02:50;13.20;;;6.78;;
64282;SDS011;50497;50.720;-2.084;2023-04-23T13:05:15;12.73;;;6.60;;
64282;SDS011;50497;50.720;-2.084;2023-04-23T13:07:41;12.23;;;6.22;;
64282;SDS011;50497;50.720;-2.084;2023-04-23T13:10:07;10.77;;;5.72;;
64282;SDS011;50497;50.720;-2.084;2023-04-23T13:14:59;11.57;;;6.28;;
64282;SDS011;50497;50.720;-2.084;2023-04-23T13:17:24;12.20;;;6.97;;
64282;SDS011;50497;50.720;-2.084;2023-04-23T13:19:50;13.18;;;6.80;;
64282;SDS011;50497;50.720;-2.084;2023-04-23T13:22:16;12.40;;;5.55;;
64282;SDS011;50497;50.720;-2.084;2023-04-23T13:24:42;11.48;;;6.25;;
64282;SDS011;50497;50.720;-2.084;2023-04-23T13:27:07;9.57;;;5.10;;
64282;SDS011;50497;50.720;-2.084;2023-04-23T13:29:37;10.18;;;5.47;;
64282;SDS011;50497;50.720;-2.084;2023-04-23T13:32:04;9.30;;;5.30;;
64282;SDS011;50497;50.720;-2.084;2023-04-23T13:34:33;12.55;;;7.00;;
64282;SDS011;50497;50.720;-2.084;2023-04-23T13:36:59;14.10;;;7.53;;
64282;SDS011;50497;50.720;-2.084;2023-04-23T13:39:29;13.23;;;5.82;;
64282;SDS011;50497;50.720;-2.084;2023-04-23T13:41:55;15.20;;;7.20;;
64282;SDS011;50497;50.720;-2.084;2023-04-23T13:44:21;14.70;;;6.95;;
64282;SDS011;50497;50.720;-2.084;2023-04-23T13:46:46;11.90;;;6.07;;
64282;SDS011;50497;50.720;-2.084;2023-04-23T13:49:12;13.55;;;7.18;;
64282;SDS011;50497;50.720;-2.084;2023-04-23T13:51:38;14.50;;;6.95;;
64282;SDS011;50497;50.720;-2.084;2023-04-23T13:54:04;12.15;;;6.47;;
64282;SDS011;50497;50.720;-2.084;2023-04-23T13:58:56;13.82;;;6.95;;
64282;SDS011;50497;50.720;-2.084;2023-04-23T14:01:26;13.80;;;6.70;;
64282;SDS011;50497;50.720;-2.084;2023-04-23T14:03:53;12.25;;;5.78;;
64282;SDS011;50497;50.720;-2.084;2023-04-23T14:06:20;12.25;;;5.95;;
64282;SDS011;50497;50.720;-2.084;2023-04-23T14:08:45;14.60;;;7.32;;
64282;SDS011;50497;50.720;-2.084;2023-04-23T14:11:11;14.35;;;7.43;;
64282;SDS011;50497;50.720;-2.084;2023-04-23T14:13:36;15.63;;;8.13;;
64282;SDS011;50497;50.720;-2.084;2023-04-23T14:16:02;15.63;;;7.70;;
64282;SDS011;50497;50.720;-2.084;2023-04-23T14:18:27;13.57;;;7.03;;
64282;SDS011;50497;50.720;-2.084;2023-04-23T14:20:53;15.27;;;6.47;;
64282;SDS011;50497;50.720;-2.084;2023-04-23T14:25:51;12.20;;;6.20;;
64282;SDS011;50497;50.720;-2.084;2023-04-23T14:28:33;12.55;;;6.13;;
64282;SDS011;50497;50.720;-2.084;2023-04-23T14:31:03;10.30;;;5.00;;
64282;SDS011;50497;50.720;-2.084;2023-04-23T14:33:28;10.80;;;5.10;;
64282;SDS011;50497;50.720;-2.084;2023-04-23T14:35:54;11.45;;;6.10;;
64282;SDS011;50497;50.720;-2.084;2023-04-23T14:38:19;13.55;;;6.65;;
64282;SDS011;50497;50.720;-2.084;2023-04-23T14:40:45;16.60;;;8.98;;
64282;SDS011;50497;50.720;-2.084;2023-04-23T14:43:10;23.60;;;12.05;;
64282;SDS011;50497;50.720;-2.084;2023-04-23T14:45:36;21.13;;;11.02;;
64282;SDS011;50497;50.720;-2.084;2023-04-23T14:48:05;22.33;;;11.63;;
64282;SDS011;50497;50.720;-2.084;2023-04-23T14:50:31;23.73;;;12.32;;
64282;SDS011;50497;50.720;-2.084;2023-04-23T14:52:56;21.40;;;11.15;;
64282;SDS011;50497;50.720;-2.084;2023-04-23T14:55:22;18.40;;;8.75;;
64282;SDS011;50497;50.720;-2.084;2023-04-23T14:57:48;16.50;;;7.47;;
64282;SDS011;50497;50.720;-2.084;2023-04-23T15:00:17;15.82;;;7.65;;
64282;SDS011;50497;50.720;-2.084;2023-04-23T15:02:43;14.98;;;7.05;;